sensor_id;sensor_type;location;lat;lon;timestamp;P1;durP1;ratioP1;P2;durP2;ratioP2
74674;SDS011;63200;48.810;12.352;2023-06-22T00:02:13;17.08;;;5.32;;
74674;SDS011;63200;48.810;12.352;2023-06-22T00:04:38;21.25;;;5.05;;
74674;SDS011;63200;48.810;12.352;2023-06-22T00:07:03;22.55;;;5.10;;
74674;SDS011;63200;48.810;12.352;2023-06-22T00:09:29;24.00;;;5.45;;
74674;SDS011;63200;48.810;12.352;2023-06-22T00:11:56;17.90;;;4.70;;
74674;SDS011;63200;48.810;12.352;2023-06-22T00:14:21;19.45;;;4.95;;
74674;SDS011;63200;48.810;12.352;2023-06-22T00:16:46;18.95;;;5.00;;
74674;SDS011;63200;48.810;12.352;2023-06-22T00:19:13;17.10;;;5.15;;
74674;SDS011;63200;48.810;12.352;2023-06-22T00:21:40;13.50;;;5.05;;
74674;SDS011;63200;48.810;12.352;2023-06-22T00:24:05;16.45;;;5.18;;
74674;SDS011;63200;48.810;12.352;2023-06-22T00:26:31;18.63;;;5.43;;
74674;SDS011;63200;48.810;12.352;2023-06-22T00:28:56;16.23;;;5.53;;
74674;SDS011;63200;48.810;12.352;2023-06-22T00:31:22;11.38;;;5.70;;
74674;SDS011;63200;48.810;12.352;2023-06-22T00:33:47;16.08;;;6.05;;
74674;SDS011;63200;48.810;12.352;2023-06-22T00:36:12;16.17;;;6.15;;
74674;SDS011;63200;48.810;12.352;2023-06-22T00:38:41;14.30;;;6.10;;
74674;SDS011;63200;48.810;12.352;2023-06-22T00:41:07;16.85;;;4.93;;
74674;SDS011;63200;48.810;12.352;2023-06-22T00:43:32;27.58;;;5.57;;
74674;SDS011;63200;48.810;12.352;2023-06-22T00:45:57;24.23;;;5.50;;
74674;SDS011;63200;48.810;12.352;2023-06-22T00:48:23;16.75;;;5.53;;
74674;SDS011;63200;48.810;12.352;2023-06-22T00:50:49;17.63;;;6.90;;
74674;SDS011;63200;48.810;12.352;2023-06-22T00:53:16;19.50;;;5.43;;
74674;SDS011;63200;48.810;12.352;2023-06-22T00:55:43;22.65;;;6.15;;
74674;SDS011;63200;48.810;12.352;2023-06-22T00:58:10;15.35;;;5.72;;
74674;SDS011;63200;48.810;12.352;2023-06-22T01:00:36;13.80;;;6.18;;
74674;SDS011;63200;48.810;12.352;2023-06-22T01:03:03;12.57;;;5.10;;
74674;SDS011;63200;48.810;12.352;2023-06-22T01:05:28;14.43;;;5.13;;
74674;SDS011;63200;48.810;12.352;2023-06-22T01:10:41;19.67;;;6.18;;
74674;SDS011;63200;48.810;12.352;2023-06-22T01:13:18;10.75;;;5.55;;
74674;SDS011;63200;48.810;12.352;2023-06-22T01:16:16;11.55;;;5.32;;
74674;SDS011;63200;48.810;12.352;2023-06-22T01:18:45;7.75;;;4.90;;
74674;SDS011;63200;48.810;12.352;2023-06-22T01:21:14;14.52;;;5.32;;
74674;SDS011;63200;48.810;12.352;2023-06-22T01:29:15;13.50;;;3.88;;
74674;SDS011;63200;48.810;12.352;2023-06-22T01:31:42;10.55;;;4.47;;
74674;SDS011;63200;48.810;12.352;2023-06-22T01:34:09;18.00;;;5.15;;
74674;SDS011;63200;48.810;12.352;2023-06-22T01:36:36;17.40;;;6.32;;
74674;SDS011;63200;48.810;12.352;2023-06-22T01:39:04;21.00;;;5.18;;
74674;SDS011;63200;48.810;12.352;2023-06-22T01:41:35;15.35;;;6.00;;
74674;SDS011;63200;48.810;12.352;2023-06-22T01:44:04;14.65;;;5.03;;
74674;SDS011;63200;48.810;12.352;2023-06-22T01:46:31;14.25;;;6.53;;
74674;SDS011;63200;48.810;12.352;2023-06-22T01:48:57;13.20;;;5.60;;
74674;SDS011;63200;48.810;12.352;2023-06-22T01:51:23;14.40;;;6.00;;
74674;SDS011;63200;48.810;12.352;2023-06-22T01:53:49;18.15;;;5.40;;
74674;SDS011;63200;48.810;12.352;2023-06-22T01:56:16;13.52;;;4.43;;
74674;SDS011;63200;48.810;12.352;2023-06-22T01:58:46;16.58;;;4.63;;
74674;SDS011;63200;48.810;12.352;2023-06-22T02:01:17;11.88;;;4.50;;
74674;SDS011;63200;48.810;12.352;2023-06-22T02:04:08;9.60;;;4.70;;
74674;SDS011;63200;48.810;12.352;2023-06-22T02:06:39;10.43;;;4.20;;
74674;SDS011;63200;48.810;12.352;2023-06-22T02:09:16;11.40;;;4.60;;
74674;SDS011;63200;48.810;12.352;2023-06-22T02:11:43;13.50;;;4.88;;
74674;SDS011;63200;48.810;12.352;2023-06-22T02:14:10;9.00;;;4.63;;
74674;SDS011;63200;48.810;12.352;2023-06-22T02:16:38;10.80;;;5.03;;
74674;SDS011;63200;48.810;12.352;2023-06-22T02:19:04;6.95;;;4.40;;
74674;SDS011;63200;48.810;12.352;2023-06-22T02:21:31;10.13;;;4.00;;
74674;SDS011;63200;48.810;12.352;2023-06-22T02:23:56;5.38;;;4.07;;
74674;SDS011;63200;48.810;12.352;2023-06-22T02:26:22;12.50;;;4.53;;
74674;SDS011;63200;48.810;12.352;2023-06-22T02:28:49;15.55;;;5.40;;
74674;SDS011;63200;48.810;12.352;2023-06-22T02:31:14;21.02;;;4.40;;
74674;SDS011;63200;48.810;12.352;2023-06-22T02:33:39;21.45;;;4.45;;
74674;SDS011;63200;48.810;12.352;2023-06-22T02:36:05;10.00;;;4.03;;
74674;SDS011;63200;48.810;12.352;2023-06-22T02:38:34;17.10;;;4.72;;
74674;SDS011;63200;48.810;12.352;2023-06-22T02:41:01;19.08;;;6.57;;
74674;SDS011;63200;48.810;12.352;2023-06-22T02:43:27;31.50;;;13.43;;
74674;SDS011;63200;48.810;12.352;2023-06-22T02:45:53;36.58;;;16.02;;
74674;SDS011;63200;48.810;12.352;2023-06-22T02:48:18;41.15;;;18.70;;
74674;SDS011;63200;48.810;12.352;2023-06-22T02:50:43;51.67;;;19.15;;
74674;SDS011;63200;48.810;12.352;2023-06-22T02:53:09;47.28;;;19.73;;
74674;SDS011;63200;48.810;12.352;2023-06-22T02:55:34;43.08;;;17.63;;
74674;SDS011;63200;48.810;12.352;2023-06-22T02:57:59;41.03;;;17.70;;
74674;SDS011;63200;48.810;12.352;2023-06-22T03:00:29;36.10;;;15.15;;
74674;SDS011;63200;48.810;12.352;2023-06-22T03:02:55;32.67;;;14.80;;
74674;SDS011;63200;48.810;12.352;2023-06-22T03:05:22;28.60;;;13.55;;
74674;SDS011;63200;48.810;12.352;2023-06-22T03:07:47;38.88;;;15.43;;
74674;SDS011;63200;48.810;12.352;2023-06-22T03:10:13;97.70;;;15.02;;
74674;SDS011;63200;48.810;12.352;2023-06-22T03:12:40;130.38;;;14.77;;
74674;SDS011;63200;48.810;12.352;2023-06-22T03:15:07;112.40;;;12.35;;
74674;SDS011;63200;48.810;12.352;2023-06-22T03:17:34;46.17;;;11.40;;
74674;SDS011;63200;48.810;12.352;2023-06-22T03:20:01;24.40;;;10.60;;
74674;SDS011;63200;48.810;12.352;2023-06-22T03:22:33;45.97;;;10.65;;
74674;SDS011;63200;48.810;12.352;2023-06-22T03:24:59;70.30;;;13.55;;
74674;SDS011;63200;48.810;12.352;2023-06-22T03:27:24;56.95;;;13.63;;
74674;SDS011;63200;48.810;12.352;2023-06-22T03:29:49;40.33;;;11.55;;
74674;SDS011;63200;48.810;12.352;2023-06-22T03:32:15;57.05;;;11.65;;
74674;SDS011;63200;48.810;12.352;2023-06-22T03:34:40;68.75;;;13.73;;
74674;SDS011;63200;48.810;12.352;2023-06-22T03:37:05;50.90;;;14.63;;
74674;SDS011;63200;48.810;12.352;2023-06-22T03:39:31;78.53;;;15.68;;
74674;SDS011;63200;48.810;12.352;2023-06-22T03:41:56;62.42;;;11.95;;
74674;SDS011;63200;48.810;12.352;2023-06-22T03:44:22;74.43;;;11.32;;
74674;SDS011;63200;48.810;12.352;2023-06-22T03:46:47;76.28;;;10.82;;
74674;SDS011;63200;48.810;12.352;2023-06-22T03:49:12;80.90;;;10.45;;
74674;SDS011;63200;48.810;12.352;2023-06-22T03:51:37;66.60;;;10.07;;
74674;SDS011;63200;48.810;12.352;2023-06-22T03:54:03;108.75;;;11.27;;
74674;SDS011;63200;48.810;12.352;2023-06-22T03:56:29;115.55;;;10.05;;
74674;SDS011;63200;48.810;12.352;2023-06-22T03:58:54;55.92;;;10.15;;
74674;SDS011;63200;48.810;12.352;2023-06-22T04:01:19;69.20;;;9.90;;
74674;SDS011;63200;48.810;12.352;2023-06-22T04:03:45;71.88;;;8.82;;
74674;SDS011;63200;48.810;12.352;2023-06-22T04:06:13;33.38;;;7.88;;
74674;SDS011;63200;48.810;12.352;2023-06-22T04:08:38;67.47;;;8.85;;
74674;SDS011;63200;48.810;12.352;2023-06-22T04:11:03;85.43;;;8.98;;
74674;SDS011;63200;48.810;12.352;2023-06-22T04:13:30;27.90;;;8.68;;
74674;SDS011;63200;48.810;12.352;2023-06-22T04:15:55;15.60;;;8.73;;
74674;SDS011;63200;48.810;12.352;2023-06-22T04:18:20;28.67;;;9.57;;
74674;SDS011;63200;48.810;12.352;2023-06-22T04:20:45;27.75;;;9.75;;
74674;SDS011;63200;48.810;12.352;2023-06-22T04:23:12;37.03;;;9.30;;
74674;SDS011;63200;48.810;12.352;2023-06-22T04:25:37;26.85;;;8.63;;
74674;SDS011;63200;48.810;12.352;2023-06-22T04:28:03;21.77;;;8.32;;
74674;SDS011;63200;48.810;12.352;2023-06-22T04:30:29;21.67;;;8.73;;
74674;SDS011;63200;48.810;12.352;2023-06-22T04:32:56;21.73;;;8.88;;
74674;SDS011;63200;48.810;12.352;2023-06-22T04:35:23;18.25;;;8.02;;
74674;SDS011;63200;48.810;12.352;2023-06-22T04:37:53;19.95;;;8.43;;
74674;SDS011;63200;48.810;12.352;2023-06-22T04:40:20;9.43;;;7.65;;
74674;SDS011;63200;48.810;12.352;2023-06-22T04:42:48;10.07;;;8.20;;
74674;SDS011;63200;48.810;12.352;2023-06-22T04:45:18;14.00;;;8.35;;
74674;SDS011;63200;48.810;12.352;2023-06-22T04:47:43;14.07;;;8.15;;
74674;SDS011;63200;48.810;12.352;2023-06-22T04:50:10;11.55;;;8.20;;
74674;SDS011;63200;48.810;12.352;2023-06-22T04:52:36;13.00;;;8.65;;
74674;SDS011;63200;48.810;12.352;2023-06-22T04:55:02;13.80;;;8.55;;
74674;SDS011;63200;48.810;12.352;2023-06-22T04:57:28;17.63;;;9.05;;
74674;SDS011;63200;48.810;12.352;2023-06-22T04:59:58;14.18;;;8.18;;
74674;SDS011;63200;48.810;12.352;2023-06-22T05:02:36;15.68;;;9.27;;
74674;SDS011;63200;48.810;12.352;2023-06-22T05:05:01;17.23;;;10.50;;
74674;SDS011;63200;48.810;12.352;2023-06-22T05:07:31;15.80;;;9.80;;
74674;SDS011;63200;48.810;12.352;2023-06-22T05:10:01;12.05;;;8.77;;
74674;SDS011;63200;48.810;12.352;2023-06-22T05:12:27;14.85;;;8.23;;
74674;SDS011;63200;48.810;12.352;2023-06-22T05:14:53;16.02;;;8.13;;
74674;SDS011;63200;48.810;12.352;2023-06-22T05:17:19;15.80;;;8.15;;
74674;SDS011;63200;48.810;12.352;2023-06-22T05:19:44;17.08;;;7.70;;
74674;SDS011;63200;48.810;12.352;2023-06-22T05:22:13;16.48;;;7.80;;
74674;SDS011;63200;48.810;12.352;2023-06-22T05:24:40;14.45;;;7.75;;
74674;SDS011;63200;48.810;12.352;2023-06-22T05:27:05;17.83;;;7.32;;
74674;SDS011;63200;48.810;12.352;2023-06-22T05:29:30;11.77;;;7.45;;
74674;SDS011;63200;48.810;12.352;2023-06-22T05:31:56;12.32;;;7.70;;
74674;SDS011;63200;48.810;12.352;2023-06-22T05:34:21;15.52;;;7.45;;
74674;SDS011;63200;48.810;12.352;2023-06-22T05:36:46;13.10;;;7.60;;
74674;SDS011;63200;48.810;12.352;2023-06-22T05:39:12;13.90;;;8.32;;
74674;SDS011;63200;48.810;12.352;2023-06-22T05:41:38;12.02;;;7.57;;
74674;SDS011;63200;48.810;12.352;2023-06-22T05:44:04;8.48;;;7.57;;
74674;SDS011;63200;48.810;12.352;2023-06-22T05:46:29;11.32;;;8.02;;
74674;SDS011;63200;48.810;12.352;2023-06-22T05:48:55;13.13;;;7.78;;
74674;SDS011;63200;48.810;12.352;2023-06-22T05:51:20;13.77;;;8.60;;
74674;SDS011;63200;48.810;12.352;2023-06-22T05:53:45;12.52;;;7.93;;
74674;SDS011;63200;48.810;12.352;2023-06-22T05:56:14;13.30;;;8.18;;
74674;SDS011;63200;48.810;12.352;2023-06-22T05:58:40;10.65;;;7.40;;
74674;SDS011;63200;48.810;12.352;2023-06-22T06:01:05;16.02;;;8.80;;
74674;SDS011;63200;48.810;12.352;2023-06-22T06:03:30;9.93;;;8.27;;
74674;SDS011;63200;48.810;12.352;2023-06-22T06:05:56;13.32;;;8.15;;
74674;SDS011;63200;48.810;12.352;2023-06-22T06:08:21;11.00;;;8.02;;
74674;SDS011;63200;48.810;12.352;2023-06-22T06:10:46;11.68;;;8.07;;
74674;SDS011;63200;48.810;12.352;2023-06-22T06:13:12;15.45;;;8.63;;
74674;SDS011;63200;48.810;12.352;2023-06-22T06:15:37;11.20;;;8.00;;
74674;SDS011;63200;48.810;12.352;2023-06-22T06:18:03;16.35;;;8.20;;
74674;SDS011;63200;48.810;12.352;2023-06-22T06:20:30;10.40;;;7.63;;
74674;SDS011;63200;48.810;12.352;2023-06-22T06:22:56;17.40;;;8.23;;
74674;SDS011;63200;48.810;12.352;2023-06-22T06:25:21;11.27;;;7.93;;
74674;SDS011;63200;48.810;12.352;2023-06-22T06:27:48;12.52;;;8.27;;
74674;SDS011;63200;48.810;12.352;2023-06-22T06:30:15;12.07;;;8.63;;
74674;SDS011;63200;48.810;12.352;2023-06-22T06:32:42;12.45;;;8.40;;
74674;SDS011;63200;48.810;12.352;2023-06-22T06:35:08;14.07;;;8.05;;
74674;SDS011;63200;48.810;12.352;2023-06-22T06:37:38;16.27;;;7.95;;
74674;SDS011;63200;48.810;12.352;2023-06-22T06:40:05;12.20;;;8.13;;
74674;SDS011;63200;48.810;12.352;2023-06-22T06:42:35;12.73;;;7.97;;
74674;SDS011;63200;48.810;12.352;2023-06-22T06:45:07;15.32;;;8.30;;
74674;SDS011;63200;48.810;12.352;2023-06-22T06:47:33;15.35;;;8.75;;
74674;SDS011;63200;48.810;12.352;2023-06-22T06:49:58;13.82;;;8.70;;
74674;SDS011;63200;48.810;12.352;2023-06-22T06:52:24;12.02;;;8.45;;
74674;SDS011;63200;48.810;12.352;2023-06-22T06:54:50;14.68;;;8.88;;
74674;SDS011;63200;48.810;12.352;2023-06-22T06:57:17;12.85;;;8.38;;
74674;SDS011;63200;48.810;12.352;2023-06-22T06:59:42;13.18;;;7.95;;
74674;SDS011;63200;48.810;12.352;2023-06-22T07:02:08;15.05;;;8.38;;
74674;SDS011;63200;48.810;12.352;2023-06-22T07:04:33;12.77;;;8.00;;
74674;SDS011;63200;48.810;12.352;2023-06-22T07:07:00;11.95;;;8.38;;
74674;SDS011;63200;48.810;12.352;2023-06-22T07:09:26;10.15;;;7.50;;
74674;SDS011;63200;48.810;12.352;2023-06-22T07:11:52;13.60;;;7.75;;
74674;SDS011;63200;48.810;12.352;2023-06-22T07:14:17;13.52;;;7.28;;
74674;SDS011;63200;48.810;12.352;2023-06-22T07:16:42;16.65;;;7.00;;
74674;SDS011;63200;48.810;12.352;2023-06-22T07:19:08;10.88;;;6.90;;
74674;SDS011;63200;48.810;12.352;2023-06-22T07:21:33;9.90;;;7.03;;
74674;SDS011;63200;48.810;12.352;2023-06-22T07:23:58;7.93;;;6.03;;
74674;SDS011;63200;48.810;12.352;2023-06-22T07:26:24;12.00;;;6.47;;
74674;SDS011;63200;48.810;12.352;2023-06-22T07:28:49;11.93;;;5.90;;
74674;SDS011;63200;48.810;12.352;2023-06-22T07:31:15;10.52;;;5.55;;
74674;SDS011;63200;48.810;12.352;2023-06-22T07:33:41;10.80;;;6.13;;
74674;SDS011;63200;48.810;12.352;2023-06-22T07:36:06;8.48;;;5.53;;
74674;SDS011;63200;48.810;12.352;2023-06-22T07:38:33;10.40;;;5.68;;
74674;SDS011;63200;48.810;12.352;2023-06-22T07:41:00;8.13;;;5.93;;
74674;SDS011;63200;48.810;12.352;2023-06-22T07:43:25;12.63;;;5.90;;
74674;SDS011;63200;48.810;12.352;2023-06-22T07:45:50;9.90;;;5.80;;
74674;SDS011;63200;48.810;12.352;2023-06-22T07:48:20;9.80;;;5.80;;
74674;SDS011;63200;48.810;12.352;2023-06-22T07:50:46;11.88;;;6.05;;
74674;SDS011;63200;48.810;12.352;2023-06-22T07:53:12;7.95;;;5.40;;
74674;SDS011;63200;48.810;12.352;2023-06-22T07:55:37;9.52;;;6.25;;
74674;SDS011;63200;48.810;12.352;2023-06-22T07:58:02;9.88;;;5.25;;
74674;SDS011;63200;48.810;12.352;2023-06-22T08:00:28;12.27;;;6.00;;
74674;SDS011;63200;48.810;12.352;2023-06-22T08:02:53;12.35;;;5.70;;
74674;SDS011;63200;48.810;12.352;2023-06-22T08:05:19;9.30;;;5.35;;
74674;SDS011;63200;48.810;12.352;2023-06-22T08:07:44;12.32;;;5.60;;
74674;SDS011;63200;48.810;12.352;2023-06-22T08:10:10;7.95;;;5.53;;
74674;SDS011;63200;48.810;12.352;2023-06-22T08:12:37;7.15;;;5.15;;
74674;SDS011;63200;48.810;12.352;2023-06-22T08:15:02;11.95;;;5.70;;
74674;SDS011;63200;48.810;12.352;2023-06-22T08:17:28;9.27;;;5.30;;
74674;SDS011;63200;48.810;12.352;2023-06-22T08:19:53;10.00;;;5.57;;
74674;SDS011;63200;48.810;12.352;2023-06-22T08:22:19;9.13;;;5.40;;
74674;SDS011;63200;48.810;12.352;2023-06-22T08:24:44;7.25;;;5.00;;
74674;SDS011;63200;48.810;12.352;2023-06-22T08:27:10;6.35;;;5.13;;
74674;SDS011;63200;48.810;12.352;2023-06-22T08:29:40;7.72;;;5.43;;
74674;SDS011;63200;48.810;12.352;2023-06-22T08:32:07;9.27;;;5.13;;
74674;SDS011;63200;48.810;12.352;2023-06-22T08:34:34;7.13;;;4.85;;
74674;SDS011;63200;48.810;12.352;2023-06-22T08:37:00;10.57;;;5.07;;
74674;SDS011;63200;48.810;12.352;2023-06-22T08:39:25;8.27;;;4.88;;
74674;SDS011;63200;48.810;12.352;2023-06-22T08:41:51;6.35;;;4.70;;
74674;SDS011;63200;48.810;12.352;2023-06-22T08:44:17;8.18;;;5.20;;
74674;SDS011;63200;48.810;12.352;2023-06-22T08:46:43;13.45;;;5.07;;
74674;SDS011;63200;48.810;12.352;2023-06-22T08:49:08;7.43;;;5.35;;
74674;SDS011;63200;48.810;12.352;2023-06-22T08:51:34;7.30;;;4.90;;
74674;SDS011;63200;48.810;12.352;2023-06-22T08:54:00;7.03;;;4.90;;
74674;SDS011;63200;48.810;12.352;2023-06-22T08:56:25;8.65;;;5.28;;
74674;SDS011;63200;48.810;12.352;2023-06-22T08:58:50;7.43;;;5.32;;
74674;SDS011;63200;48.810;12.352;2023-06-22T09:01:16;8.93;;;5.10;;
74674;SDS011;63200;48.810;12.352;2023-06-22T09:03:41;8.93;;;5.28;;
74674;SDS011;63200;48.810;12.352;2023-06-22T09:06:07;9.02;;;5.15;;
74674;SDS011;63200;48.810;12.352;2023-06-22T09:08:34;8.15;;;4.85;;
74674;SDS011;63200;48.810;12.352;2023-06-22T09:11:00;7.40;;;4.90;;
74674;SDS011;63200;48.810;12.352;2023-06-22T09:13:25;6.15;;;4.90;;
74674;SDS011;63200;48.810;12.352;2023-06-22T09:15:51;7.00;;;4.85;;
74674;SDS011;63200;48.810;12.352;2023-06-22T09:18:17;6.28;;;5.00;;
74674;SDS011;63200;48.810;12.352;2023-06-22T09:20:42;16.23;;;5.53;;
74674;SDS011;63200;48.810;12.352;2023-06-22T09:23:08;15.77;;;5.38;;
74674;SDS011;63200;48.810;12.352;2023-06-22T09:25:33;8.32;;;5.05;;
74674;SDS011;63200;48.810;12.352;2023-06-22T09:27:58;9.87;;;5.13;;
74674;SDS011;63200;48.810;12.352;2023-06-22T09:30:24;8.35;;;5.25;;
74674;SDS011;63200;48.810;12.352;2023-06-22T09:32:49;6.53;;;5.15;;
74674;SDS011;63200;48.810;12.352;2023-06-22T09:35:14;13.95;;;5.30;;
74674;SDS011;63200;48.810;12.352;2023-06-22T09:37:40;12.63;;;5.35;;
74674;SDS011;63200;48.810;12.352;2023-06-22T09:40:06;7.90;;;5.05;;
74674;SDS011;63200;48.810;12.352;2023-06-22T09:42:36;8.05;;;5.00;;
74674;SDS011;63200;48.810;12.352;2023-06-22T09:45:02;5.82;;;5.22;;
74674;SDS011;63200;48.810;12.352;2023-06-22T09:47:29;8.30;;;4.55;;
74674;SDS011;63200;48.810;12.352;2023-06-22T09:49:54;8.85;;;5.38;;
74674;SDS011;63200;48.810;12.352;2023-06-22T09:52:20;11.60;;;5.38;;
74674;SDS011;63200;48.810;12.352;2023-06-22T09:54:46;11.32;;;5.47;;
74674;SDS011;63200;48.810;12.352;2023-06-22T09:57:11;7.00;;;5.15;;
74674;SDS011;63200;48.810;12.352;2023-06-22T09:59:37;9.07;;;5.07;;
74674;SDS011;63200;48.810;12.352;2023-06-22T10:02:03;8.98;;;4.65;;
74674;SDS011;63200;48.810;12.352;2023-06-22T10:04:28;10.25;;;5.10;;
74674;SDS011;63200;48.810;12.352;2023-06-22T10:06:53;8.45;;;4.68;;
74674;SDS011;63200;48.810;12.352;2023-06-22T10:09:19;7.18;;;4.78;;
74674;SDS011;63200;48.810;12.352;2023-06-22T10:11:44;10.40;;;4.18;;
74674;SDS011;63200;48.810;12.352;2023-06-22T10:14:09;8.93;;;4.87;;
74674;SDS011;63200;48.810;12.352;2023-06-22T10:16:36;7.65;;;4.50;;
74674;SDS011;63200;48.810;12.352;2023-06-22T10:19:01;9.30;;;4.68;;
74674;SDS011;63200;48.810;12.352;2023-06-22T10:21:27;7.93;;;4.57;;
74674;SDS011;63200;48.810;12.352;2023-06-22T10:23:53;9.27;;;4.78;;
74674;SDS011;63200;48.810;12.352;2023-06-22T10:26:19;11.20;;;5.07;;
74674;SDS011;63200;48.810;12.352;2023-06-22T10:28:44;10.98;;;4.88;;
74674;SDS011;63200;48.810;12.352;2023-06-22T10:31:09;12.55;;;5.53;;
74674;SDS011;63200;48.810;12.352;2023-06-22T10:33:34;9.15;;;4.70;;
74674;SDS011;63200;48.810;12.352;2023-06-22T10:36:00;10.13;;;4.82;;
74674;SDS011;63200;48.810;12.352;2023-06-22T10:38:25;7.57;;;4.55;;
74674;SDS011;63200;48.810;12.352;2023-06-22T10:40:50;8.05;;;4.55;;
74674;SDS011;63200;48.810;12.352;2023-06-22T10:43:16;9.40;;;5.10;;
74674;SDS011;63200;48.810;12.352;2023-06-22T10:45:41;10.30;;;4.53;;
74674;SDS011;63200;48.810;12.352;2023-06-22T10:48:06;7.47;;;4.43;;
74674;SDS011;63200;48.810;12.352;2023-06-22T10:50:32;7.47;;;4.28;;
74674;SDS011;63200;48.810;12.352;2023-06-22T10:52:57;8.93;;;5.00;;
74674;SDS011;63200;48.810;12.352;2023-06-22T10:55:23;16.35;;;5.00;;
74674;SDS011;63200;48.810;12.352;2023-06-22T10:57:48;12.10;;;4.90;;
74674;SDS011;63200;48.810;12.352;2023-06-22T11:00:14;6.35;;;4.32;;
74674;SDS011;63200;48.810;12.352;2023-06-22T11:02:40;9.52;;;4.75;;
74674;SDS011;63200;48.810;12.352;2023-06-22T11:05:06;10.27;;;4.57;;
74674;SDS011;63200;48.810;12.352;2023-06-22T11:07:31;7.57;;;4.75;;
74674;SDS011;63200;48.810;12.352;2023-06-22T11:09:57;6.75;;;4.93;;
74674;SDS011;63200;48.810;12.352;2023-06-22T11:12:23;5.40;;;4.15;;
74674;SDS011;63200;48.810;12.352;2023-06-22T11:14:48;15.18;;;5.00;;
74674;SDS011;63200;48.810;12.352;2023-06-22T11:17:16;6.35;;;4.32;;
74674;SDS011;63200;48.810;12.352;2023-06-22T11:19:42;12.52;;;4.97;;
74674;SDS011;63200;48.810;12.352;2023-06-22T11:22:07;10.33;;;4.63;;
74674;SDS011;63200;48.810;12.352;2023-06-22T11:24:32;7.90;;;4.65;;
74674;SDS011;63200;48.810;12.352;2023-06-22T11:26:58;10.13;;;4.70;;
74674;SDS011;63200;48.810;12.352;2023-06-22T11:29:23;10.55;;;4.97;;
74674;SDS011;63200;48.810;12.352;2023-06-22T11:31:49;9.88;;;4.78;;
74674;SDS011;63200;48.810;12.352;2023-06-22T11:34:14;10.27;;;4.72;;
74674;SDS011;63200;48.810;12.352;2023-06-22T11:36:39;8.10;;;4.75;;
74674;SDS011;63200;48.810;12.352;2023-06-22T11:39:05;8.50;;;4.72;;
74674;SDS011;63200;48.810;12.352;2023-06-22T11:41:30;8.45;;;4.80;;
74674;SDS011;63200;48.810;12.352;2023-06-22T11:43:56;7.68;;;4.85;;
74674;SDS011;63200;48.810;12.352;2023-06-22T11:46:21;7.63;;;4.32;;
74674;SDS011;63200;48.810;12.352;2023-06-22T11:48:46;10.27;;;4.63;;
74674;SDS011;63200;48.810;12.352;2023-06-22T11:51:12;11.37;;;4.93;;
74674;SDS011;63200;48.810;12.352;2023-06-22T11:53:37;8.88;;;5.13;;
74674;SDS011;63200;48.810;12.352;2023-06-22T11:56:02;12.20;;;4.85;;
74674;SDS011;63200;48.810;12.352;2023-06-22T11:58:28;8.77;;;4.60;;
74674;SDS011;63200;48.810;12.352;2023-06-22T12:00:53;12.68;;;4.70;;
74674;SDS011;63200;48.810;12.352;2023-06-22T12:03:19;9.90;;;4.65;;
74674;SDS011;63200;48.810;12.352;2023-06-22T12:05:46;11.30;;;4.72;;
74674;SDS011;63200;48.810;12.352;2023-06-22T12:08:12;7.15;;;4.93;;
74674;SDS011;63200;48.810;12.352;2023-06-22T12:10:38;8.23;;;4.85;;
74674;SDS011;63200;48.810;12.352;2023-06-22T12:13:03;11.57;;;4.68;;
74674;SDS011;63200;48.810;12.352;2023-06-22T12:15:29;11.07;;;4.80;;
74674;SDS011;63200;48.810;12.352;2023-06-22T12:17:54;10.77;;;4.57;;
74674;SDS011;63200;48.810;12.352;2023-06-22T12:20:19;12.13;;;5.00;;
74674;SDS011;63200;48.810;12.352;2023-06-22T12:22:45;10.38;;;4.35;;
74674;SDS011;63200;48.810;12.352;2023-06-22T12:25:10;12.25;;;4.80;;
74674;SDS011;63200;48.810;12.352;2023-06-22T12:27:36;8.23;;;4.22;;
74674;SDS011;63200;48.810;12.352;2023-06-22T12:30:01;9.60;;;4.18;;
74674;SDS011;63200;48.810;12.352;2023-06-22T12:32:27;12.18;;;4.82;;
74674;SDS011;63200;48.810;12.352;2023-06-22T12:34:53;14.98;;;5.18;;
74674;SDS011;63200;48.810;12.352;2023-06-22T12:37:18;11.65;;;5.00;;
74674;SDS011;63200;48.810;12.352;2023-06-22T12:39:43;10.90;;;4.75;;
74674;SDS011;63200;48.810;12.352;2023-06-22T12:42:10;11.43;;;4.85;;
74674;SDS011;63200;48.810;12.352;2023-06-22T12:44:37;7.50;;;4.38;;
74674;SDS011;63200;48.810;12.352;2023-06-22T12:47:04;11.68;;;4.47;;
74674;SDS011;63200;48.810;12.352;2023-06-22T12:49:30;10.93;;;4.75;;
74674;SDS011;63200;48.810;12.352;2023-06-22T12:51:55;11.10;;;4.82;;
74674;SDS011;63200;48.810;12.352;2023-06-22T12:54:20;8.30;;;4.40;;
74674;SDS011;63200;48.810;12.352;2023-06-22T12:56:46;7.95;;;4.75;;
74674;SDS011;63200;48.810;12.352;2023-06-22T12:59:12;8.80;;;4.18;;
74674;SDS011;63200;48.810;12.352;2023-06-22T13:01:37;11.82;;;4.95;;
74674;SDS011;63200;48.810;12.352;2023-06-22T13:04:02;11.80;;;4.45;;
74674;SDS011;63200;48.810;12.352;2023-06-22T13:06:28;9.65;;;4.65;;
74674;SDS011;63200;48.810;12.352;2023-06-22T13:08:54;10.07;;;4.60;;
74674;SDS011;63200;48.810;12.352;2023-06-22T13:11:19;7.57;;;4.80;;
74674;SDS011;63200;48.810;12.352;2023-06-22T13:13:45;12.07;;;4.45;;
74674;SDS011;63200;48.810;12.352;2023-06-22T13:16:10;11.02;;;4.60;;
74674;SDS011;63200;48.810;12.352;2023-06-22T13:18:36;13.02;;;4.90;;
74674;SDS011;63200;48.810;12.352;2023-06-22T13:21:01;13.90;;;4.65;;
74674;SDS011;63200;48.810;12.352;2023-06-22T13:23:27;15.15;;;4.93;;
74674;SDS011;63200;48.810;12.352;2023-06-22T13:25:52;12.88;;;4.72;;
74674;SDS011;63200;48.810;12.352;2023-06-22T13:28:18;9.10;;;4.57;;
74674;SDS011;63200;48.810;12.352;2023-06-22T13:30:43;15.00;;;5.03;;
74674;SDS011;63200;48.810;12.352;2023-06-22T13:33:12;7.05;;;4.60;;
74674;SDS011;63200;48.810;12.352;2023-06-22T13:35:37;17.08;;;5.22;;
74674;SDS011;63200;48.810;12.352;2023-06-22T13:38:03;17.25;;;4.80;;
74674;SDS011;63200;48.810;12.352;2023-06-22T13:40:28;14.00;;;5.10;;
74674;SDS011;63200;48.810;12.352;2023-06-22T13:42:54;9.30;;;4.50;;
74674;SDS011;63200;48.810;12.352;2023-06-22T13:45:20;11.05;;;5.03;;
74674;SDS011;63200;48.810;12.352;2023-06-22T13:47:45;15.13;;;5.28;;
74674;SDS011;63200;48.810;12.352;2023-06-22T13:50:11;13.80;;;4.75;;
74674;SDS011;63200;48.810;12.352;2023-06-22T13:52:37;15.48;;;4.55;;
74674;SDS011;63200;48.810;12.352;2023-06-22T13:55:03;17.75;;;4.80;;
74674;SDS011;63200;48.810;12.352;2023-06-22T13:57:29;15.13;;;4.50;;
74674;SDS011;63200;48.810;12.352;2023-06-22T13:59:55;15.57;;;4.68;;
74674;SDS011;63200;48.810;12.352;2023-06-22T14:02:20;10.30;;;5.10;;
74674;SDS011;63200;48.810;12.352;2023-06-22T14:04:45;13.57;;;4.67;;
74674;SDS011;63200;48.810;12.352;2023-06-22T14:07:11;17.23;;;4.50;;
74674;SDS011;63200;48.810;12.352;2023-06-22T14:09:36;18.17;;;5.20;;
74674;SDS011;63200;48.810;12.352;2023-06-22T14:12:05;17.15;;;5.55;;
74674;SDS011;63200;48.810;12.352;2023-06-22T14:14:31;13.63;;;4.90;;
74674;SDS011;63200;48.810;12.352;2023-06-22T14:16:58;17.17;;;5.03;;
74674;SDS011;63200;48.810;12.352;2023-06-22T14:19:23;12.23;;;5.15;;
74674;SDS011;63200;48.810;12.352;2023-06-22T14:21:49;14.10;;;4.80;;
74674;SDS011;63200;48.810;12.352;2023-06-22T14:24:14;13.87;;;5.33;;
74674;SDS011;63200;48.810;12.352;2023-06-22T14:26:39;12.77;;;4.87;;